Архив погоды в Рыбинске

Метеограмма Рыбинск
Среда, 17 Октября
Время местн. Темп Ветер Видим Явления Облачность нижн/средн/верх Атм. давл. Влжн Точка росы ВНГО R Сост. почвы Tg s
Напр Скр Прв ур.ст ур.м изм
15:00 +12° С,С-З 1 - 15 км - переменная облачность 760 770 +0.2 65% +5.7° - - - - -
12:00 +12.4° З 1 - 14 км - переменная облачность 760 770 +0.3 69% +6.9° - - - - -
09:00 +10° С-З 1 - 10 км - преимущественно облачно 759 769 +1.4 82% +7.1° - - - - -
06:00 +9.7° З,С-З 1 - 10 км - переменная облачность 758 767 +1 77% +5.9° - - Влажная (без луж) - -
03:00 +10.1° З,С-З 2 - 10 км - переменная облачность 757 766 +0.8 71% +5.1° - - - - -
00:00 +11.7° З 2 - 10 км - облачно с прояснениями 756 765 +0.4 62% +4.7° - - - - -
Вторник, 16 Октября
Время местн. Темп Ветер Видим Явления Облачность нижн/средн/верх Атм. давл. Влжн Точка росы ВНГО R Сост. почвы Tg s
Напр Скр Прв ур.ст ур.м изм
21:00 +13.2° З 4 - 10 км - переменная облачность 755 765 -0.5 58% +5.1° - - - - -
18:00 +12.8° штиль 0 - 14 км - переменная облачность 756 765 -0.6 59% +5° - - - - -
15:00 +16.8° З 2 - 16 км - облачно с прояснениями 756 766 -1.1 43% +4.1° более 2.5 км - - - -
12:00 +12.9° З,Ю-З 1 - 14 км - облачно 758 767 -0.6 61% +5.6° более 2.5 км - - - -
09:00 +8° З 1 - 12 км - переменная облачность 758 768 0 84% +5.5° более 2.5 км - - - -
06:00 +3° Ю-В 1 - 10 км - переменная облачность 758 768 -0.3 95% +2.3° более 2.5 км - Влажная (без луж) - -
03:00 +7.4° З 1 - 10 км - ясно 759 768 -0.2 89% +5.7° более 2.5 км - - - -
00:00 +8.8° З,С-З 1 - 10 км - ясно 759 768 +0.1 86% +6.6° более 2.5 км - - - -
Понедельник, 15 Октября
Время местн. Темп Ветер Видим Явления Облачность нижн/средн/верх Атм. давл. Влжн Точка росы ВНГО R Сост. почвы Tg s
Напр Скр Прв ур.ст ур.м изм
21:00 +9.8° З 1 - 10 км - ясно 759 768 -0.2 84% +7.2° более 2.5 км - - - -
18:00 +11° штиль 0 - 13 км - ясно 759 768 -0.7 83% +8.2° более 2.5 км - - - -
15:00 +17.5° З 1 - 15 км - ясно 760 769 -0.3 59% +9.4° более 2.5 км - - - -
12:00 +15.7° Ю-З 1 - 15 км - ясно 760 769 +0.2 69% +10° более 2.5 км - - - -
09:00 +10.2° З 2 - 7 км дымка ясно 760 769 +0.4 89% +8.5° более 2.5 км - - - -
06:00 +8.1° штиль 0 - 10 км - ясно 759 769 +0.4 93% +7° более 2.5 км - Влажная (без луж) - -
03:00 +12.6° З,С-З 2 - 10 км - ясно 759 768 +0.3 78% +8.9° более 2.5 км - - - -
00:00 +12.7° З,С-З 1 - 10 км - ясно 759 768 +0.5 77% +8.8° более 2.5 км - - - -
Воскресенье, 14 Октября
Время местн. Темп Ветер Видим Явления Облачность нижн/средн/верх Атм. давл. Влжн Точка росы ВНГО R Сост. почвы Tg s
Напр Скр Прв ур.ст ур.м изм
21:00 +13.6° З,С-З 1 - 10 км - ясно 758 768 +0.6 75% +9.2° более 2.5 км - - - -
18:00 +14.8° З 3 - 12 км - ясно 758 767 -0.5 76% +10.6° более 2.5 км - - - -
15:00 +15.8° З 2 - 15 км облака рассеиваются {морось, туман} облачно с прояснениями 758 768 -1.1 69% +10.1° - - - - -
12:00 +11.8° З,С-З 1 - 10 км небо без изменений {морось, туман} облачно 759 769 -0.1 90% +10.2° 600 м - - - -